Time;durP1;ratioP1;P1;durP2;ratioP2;P2;SDS_P1;SDS_P2;PMS_P1;PMS_P2;Temp;Humidity;BMP_temperature;BMP_pressure;BME280_temperature;BME280_humidity;BME280_pressure;Samples;Min_cycle;Max_cycle;Signal;HPM_P1;HPM_P2
2023/05/25 00:00:39;;;;;;;16.07;6.90;;;5.30;2.00;6.30;94432.00;;;;7395269;19;20157;-78
2023/05/25 00:03:30;;;;;;;12.87;6.40;;;5.40;1.00;6.30;94444.00;;;;7398647;19;20593;-77
2023/05/25 00:06:09;;;;;;;14.37;6.40;;;5.50;1.00;6.10;94432.00;;;;7401875;19;20164;-78
2023/05/25 00:08:50;;;;;;;12.77;5.57;;;5.50;1.00;6.20;94437.00;;;;7402789;19;20481;-79
2023/05/25 00:11:25;;;;;;;14.53;4.73;;;5.50;1.00;6.20;94436.00;;;;7405590;19;20140;-78
2023/05/25 00:13:59;;;;;;;14.53;4.40;;;5.50;1.00;6.00;94435.00;;;;7405272;19;20124;-76
2023/05/25 00:16:30;;;;;;;15.63;4.53;;;5.30;1.00;6.00;94436.00;;;;7404497;19;20596;-76
2023/05/25 00:19:02;;;;;;;12.47;4.80;;;5.30;1.00;6.10;94436.00;;;;7405493;19;20133;-79
2023/05/25 00:21:40;;;;;;;11.27;4.93;;;5.30;1.00;6.10;94425.00;;;;7403699;19;20156;-78
2023/05/25 00:24:08;;;;;;;16.80;5.60;;;5.30;1.00;6.10;94433.00;;;;7404792;19;20127;-78
2023/05/25 00:26:43;;;;;;;13.50;5.90;;;5.30;1.00;6.10;94416.00;;;;7403037;19;20645;-78
2023/05/25 00:29:12;;;;;;;11.43;4.50;;;5.30;1.00;6.20;94429.00;;;;7402466;19;20125;-75
2023/05/25 00:31:46;;;;;;;12.93;5.20;;;5.30;1.00;6.20;94428.00;;;;7402904;19;20132;-78
2023/05/25 00:34:21;;;;;;;13.30;4.70;;;5.30;1.00;6.10;94423.00;;;;7403072;19;20145;-78
2023/05/25 00:36:55;;;;;;;8.40;4.30;;;5.30;1.00;6.10;94424.00;;;;7404448;19;20140;-77
2023/05/25 00:39:29;;;;;;;14.23;4.67;;;5.30;1.00;6.20;94425.00;;;;7403973;19;20132;-76
2023/05/25 00:41:58;;;;;;;9.03;4.03;;;5.40;1.00;6.20;94411.00;;;;7404355;19;20133;-78
2023/05/25 00:44:31;;;;;;;9.23;4.33;;;5.40;1.00;6.20;94396.00;;;;7402417;19;20607;-78
2023/05/25 00:47:07;;;;;;;12.97;4.40;;;5.40;1.00;6.20;94428.00;;;;7404305;19;20128;-79
2023/05/25 00:49:41;;;;;;;8.50;4.00;;;5.50;1.00;6.10;94426.00;;;;7404158;19;20133;-78
2023/05/25 00:52:12;;;;;;;13.83;4.47;;;5.40;1.00;6.20;94428.00;;;;7402375;19;20173;-77
2023/05/25 00:54:51;;;;;;;16.03;3.93;;;5.40;1.00;6.20;94425.00;;;;7402938;19;20144;-78
2023/05/25 00:57:22;;;;;;;14.87;4.63;;;5.40;1.00;6.20;94426.00;;;;7403573;19;20596;-77
2023/05/25 00:59:59;;;;;;;11.67;4.60;;;5.40;1.00;6.00;94419.00;;;;7403788;19;20151;-75
2023/05/25 01:02:41;;;;;;;20.60;4.50;;;5.40;1.00;5.90;94416.00;;;;7400338;19;20141;-71
2023/05/25 01:05:27;;;;;;;14.60;4.97;;;5.30;1.00;5.80;94401.00;;;;7401831;19;20152;-74
2023/05/25 01:08:00;;;;;;;8.27;3.87;;;5.30;1.00;5.90;94421.00;;;;7402609;19;20133;-71
2023/05/25 01:10:38;;;;;;;11.60;4.20;;;5.20;1.00;5.90;94422.00;;;;7401872;19;20560;-72
2023/05/25 01:13:16;;;;;;;9.53;4.10;;;5.20;1.00;5.80;94423.00;;;;7402373;19;20124;-72
2023/05/25 01:15:51;;;;;;;13.80;4.60;;;5.10;19.10;5.90;94418.00;;;;7400289;19;20633;-72
2023/05/25 01:18:25;;;;;;;10.27;4.53;;;5.10;19.80;5.80;94420.00;;;;7402938;19;20136;-72
2023/05/25 01:21:11;;;;;;;20.47;5.20;;;5.10;49.30;5.80;94425.00;;;;7403234;19;20144;-73
2023/05/25 01:23:54;;;;;;;16.77;5.10;;;5.10;49.70;5.90;94391.00;;;;7400407;19;20482;-73
2023/05/25 01:26:33;;;;;;;16.73;4.33;;;5.10;41.10;5.90;94427.00;;;;7402937;19;20132;-73
2023/05/25 01:29:11;;;;;;;10.67;4.63;;;5.10;61.90;5.80;94379.00;;;;7400808;19;20145;-71
2023/05/25 01:31:46;;;;;;;7.73;4.00;;;5.20;77.50;5.90;94375.00;;;;7401281;19;20501;-74
2023/05/25 01:34:22;;;;;;;13.63;4.50;;;5.20;80.30;5.90;94412.00;;;;7400421;19;20152;-74
2023/05/25 01:36:49;;;;;;;12.23;4.27;;;5.20;57.50;5.90;94422.00;;;;7401193;19;20152;-73
2023/05/25 01:39:24;;;;;;;12.57;4.23;;;5.20;30.70;6.00;94422.00;;;;7402904;19;20610;-72
2023/05/25 01:41:51;;;;;;;13.07;4.50;;;5.20;1.00;5.90;94408.00;;;;7401713;19;20145;-74
2023/05/25 01:44:25;;;;;;;13.67;4.30;;;5.20;1.00;6.00;94402.00;;;;7402027;19;20210;-73
2023/05/25 01:47:08;;;;;;;14.23;5.23;;;5.20;1.00;5.90;94401.00;;;;7399607;19;20157;-71
2023/05/25 01:50:13;;;;;;;13.30;4.30;;;5.20;1.00;5.80;94420.00;;;;7399867;19;20133;-73
2023/05/25 01:53:02;;;;;;;11.03;4.27;;;5.10;1.00;5.80;94401.00;;;;7401233;19;20133;-76
2023/05/25 01:55:45;;;;;;;11.80;4.40;;;5.00;26.20;5.80;94396.00;;;;7400391;19;20635;-72
2023/05/25 01:58:23;;;;;;;9.77;4.40;;;5.00;39.10;5.80;94424.00;;;;7399449;19;20204;-72
2023/05/25 02:00:59;;;;;;;7.57;4.10;;;5.00;40.40;5.80;94389.00;;;;7400510;19;20137;-74
2023/05/25 02:03:36;;;;;;;9.93;4.77;;;5.00;27.20;5.80;94409.00;;;;7400986;19;20125;-73
2023/05/25 02:06:11;;;;;;;16.80;4.63;;;5.00;55.70;5.80;94408.00;;;;7399828;19;20501;-72
2023/05/25 02:08:44;;;;;;;14.67;4.57;;;5.00;35.60;5.70;94410.00;;;;7398415;19;20498;-74
2023/05/25 02:11:13;;;;;;;11.73;4.57;;;5.00;37.30;5.50;94409.00;;;;7401368;19;20136;-73
2023/05/25 02:13:48;;;;;;;12.60;4.40;;;4.90;41.00;5.70;94395.00;;;;7400968;19;20148;-72
2023/05/25 02:16:23;;;;;;;20.67;5.10;;;4.90;99.90;5.70;94390.00;;;;7400997;19;20215;-73
2023/05/25 02:18:59;;;;;;;9.00;4.07;;;4.90;99.90;5.70;94382.00;;;;7400781;19;20664;-72
2023/05/25 02:21:27;;;;;;;15.47;4.43;;;4.90;99.90;5.90;94412.00;;;;7400938;19;20161;-72
2023/05/25 02:24:01;;;;;;;12.63;4.90;;;5.00;99.90;5.90;94382.00;;;;7400687;19;20484;-73
2023/05/25 02:26:28;;;;;;;12.10;4.47;;;5.00;99.90;6.10;94381.00;;;;7398858;19;20145;-75
2023/05/25 02:29:03;;;;;;;11.27;4.27;;;5.10;41.50;6.00;94346.00;;;;7398092;19;20137;-74
2023/05/25 02:31:31;;;;;;;11.57;4.10;;;5.10;1.00;5.90;94393.00;;;;7400315;19;20600;-79
2023/05/25 02:34:05;;;;;;;14.90;4.47;;;5.10;8.90;5.80;94387.00;;;;7399517;19;20132;-78
2023/05/25 02:36:33;;;;;;;12.57;4.83;;;5.10;25.20;5.80;94375.00;;;;7400278;19;20141;-71
2023/05/25 02:39:07;;;;;;;14.93;4.40;;;5.10;18.90;5.80;94388.00;;;;7399929;19;20469;-74
2023/05/25 02:41:41;;;;;;;13.23;5.03;;;5.10;42.10;5.90;94394.00;;;;7398341;19;20136;-71
2023/05/25 02:44:17;;;;;;;13.50;4.20;;;5.10;37.60;5.90;94380.00;;;;7400520;19;20133;-72
2023/05/25 02:46:47;;;;;;;13.83;3.93;;;5.10;38.80;5.90;94372.00;;;;7399925;19;20475;-71
2023/05/25 02:49:16;;;;;;;12.33;4.33;;;5.10;35.80;6.10;94341.00;;;;7399152;19;20624;-74
2023/05/25 02:51:50;;;;;;;14.97;4.43;;;5.20;1.00;6.10;94371.00;;;;7399767;19;20124;-72
2023/05/25 02:54:17;;;;;;;8.30;4.07;;;5.20;1.00;6.00;94384.00;;;;7399226;19;20140;-72
2023/05/25 02:56:46;;;;;;;15.13;4.57;;;5.30;1.00;6.10;94378.00;;;;7400088;19;20132;-73
2023/05/25 02:59:20;;;;;;;16.67;4.50;;;5.30;1.00;6.00;94381.00;;;;7399772;19;20629;-72
2023/05/25 03:01:47;;;;;;;12.37;4.10;;;5.30;1.00;6.00;94391.00;;;;7397839;19;20149;-71
2023/05/25 03:04:30;;;;;;;12.97;4.70;;;5.20;1.00;5.80;94390.00;;;;7398634;19;20133;-74
2023/05/25 03:07:13;;;;;;;9.67;4.27;;;5.20;1.00;5.60;94398.00;;;;7398686;19;20580;-74
2023/05/25 03:09:47;;;;;;;9.27;4.13;;;5.20;1.00;5.50;94392.00;;;;7398080;19;20132;-73
2023/05/25 03:12:14;;;;;;;17.13;4.47;;;5.00;1.00;5.40;94392.00;;;;7397581;19;20121;-72
2023/05/25 03:14:48;;;;;;;13.73;4.93;;;4.90;1.00;5.40;94392.00;;;;7391892;19;20125;-71
2023/05/25 03:17:22;;;;;;;12.83;4.40;;;4.80;41.60;5.30;94391.00;;;;7393865;19;20129;-73
2023/05/25 03:19:57;;;;;;;15.00;4.47;;;4.70;85.90;5.30;94383.00;;;;7396104;19;20488;-74
2023/05/25 03:22:31;;;;;;;13.27;4.57;;;4.70;99.90;5.20;94399.00;;;;7397239;19;20148;-75
2023/05/25 03:24:58;;;;;;;17.73;4.13;;;4.60;99.90;5.10;94371.00;;;;7397454;19;20159;-75
2023/05/25 03:27:32;;;;;;;17.67;5.00;;;4.60;99.90;5.20;94413.00;;;;7398579;19;20165;-73
2023/05/25 03:30:07;;;;;;;13.17;4.73;;;4.50;99.90;5.20;94403.00;;;;7397560;19;20240;-73
2023/05/25 03:32:41;;;;;;;20.60;5.33;;;4.50;99.90;5.10;94417.00;;;;7398096;19;20164;-73
2023/05/25 03:35:15;;;;;;;18.67;5.47;;;4.40;99.90;5.10;94406.00;;;;7396865;19;20152;-72
2023/05/25 03:37:42;;;;;;;12.77;5.50;;;4.40;99.90;5.10;94407.00;;;;7397139;19;20121;-72
2023/05/25 03:40:16;;;;;;;11.43;4.83;;;4.30;99.90;5.00;94409.00;;;;7397653;19;20191;-74
2023/05/25 03:42:50;;;;;;;11.93;4.43;;;4.30;99.90;5.10;94405.00;;;;7398434;19;20506;-73
2023/05/25 03:45:24;;;;;;;15.30;5.27;;;4.40;1.00;5.10;94416.00;;;;7396732;19;20147;-72
2023/05/25 03:47:58;;;;;;;11.20;4.87;;;4.40;1.00;5.00;94414.00;;;;7396835;19;20591;-72
2023/05/25 03:50:33;;;;;;;11.30;4.80;;;4.30;1.00;5.00;94398.00;;;;7396008;19;20137;-74
2023/05/25 03:53:07;;;;;;;10.13;4.73;;;4.40;1.00;5.00;94409.00;;;;7396493;19;20128;-73
2023/05/25 03:55:36;;;;;;;14.73;5.50;;;4.30;1.00;5.10;94400.00;;;;7396884;19;20186;-73
2023/05/25 03:58:10;;;;;;;14.97;4.93;;;4.40;1.00;5.10;94408.00;;;;7396858;19;20140;-72
2023/05/25 04:00:37;;;;;;;14.60;5.13;;;4.40;1.00;5.00;94414.00;;;;7397153;19;20137;-73
2023/05/25 04:03:11;;;;;;;13.90;4.70;;;4.40;1.00;5.10;94395.00;;;;7397896;19;20124;-74
2023/05/25 04:05:45;;;;;;;13.03;4.90;;;4.40;1.00;5.10;94413.00;;;;7394915;19;20485;-72
2023/05/25 08:04:30;;;;;;;9.85;6.03;;;13.10;1.00;14.60;94565.00;;;;7399074;19;20133;-76
2023/05/25 08:07:03;;;;;;;11.35;5.82;;;13.50;1.00;14.80;94562.00;;;;7400068;19;20476;-75
2023/05/25 08:09:43;;;;;;;13.40;5.65;;;13.80;1.00;14.40;94541.00;;;;7398321;19;20152;-75
2023/05/25 08:12:17;;;;;;;13.60;5.78;;;14.00;1.00;14.80;94544.00;;;;7399554;19;20616;-76
2023/05/25 08:14:56;;;;;;;14.57;6.93;;;14.00;1.00;14.80;94536.00;;;;7398108;19;20378;-77
2023/05/25 08:17:29;;;;;;;14.40;6.32;;;14.10;1.00;15.20;94553.00;;;;7398949;19;20141;-76
2023/05/25 08:20:05;;;;;;;13.70;5.90;;;14.30;1.00;15.00;94541.00;;;;7399065;19;20609;-78
2023/05/25 08:22:39;;;;;;;16.00;6.13;;;14.40;1.00;15.30;94550.00;;;;7397432;19;20169;-77
2023/05/25 08:25:07;;;;;;;11.77;5.75;;;14.60;99.90;15.60;94568.00;;;;7401160;19;20592;-76
2023/05/25 08:27:40;;;;;;;13.90;6.20;;;14.80;1.00;16.20;94565.00;;;;7404006;19;20121;-76
2023/05/25 08:30:07;;;;;;;12.75;6.50;;;15.00;1.00;16.10;94560.00;;;;7402543;19;20137;-76
2023/05/25 08:32:41;;;;;;;10.23;6.38;;;15.10;1.00;16.20;94559.00;;;;7404100;19;20588;-77
2023/05/25 08:35:08;;;;;;;10.15;6.45;;;15.30;1.00;16.70;94550.00;;;;7404107;19;20230;-78
2023/05/25 08:37:43;;;;;;;11.05;5.95;;;15.60;99.90;17.00;94542.00;;;;7405135;19;20149;-77
2023/05/25 08:40:17;;;;;;;13.85;6.32;;;15.90;99.90;16.80;94535.00;;;;7405675;19;20173;-76
2023/05/25 08:42:45;;;;;;;13.23;6.93;;;16.40;99.90;17.70;94549.00;;;;7404425;19;20133;-76
2023/05/25 08:45:12;;;;;;;10.90;5.93;;;16.70;1.00;18.10;94565.00;;;;7405017;19;20137;-77
2023/05/25 08:48:11;;;;;;;11.63;5.90;;;16.70;1.00;17.30;94584.00;;;;7404724;19;20145;-78
2023/05/25 08:50:40;;;;;;;12.75;6.13;;;16.50;1.00;17.30;94576.00;;;;7401968;19;20120;-79
2023/05/25 08:53:15;;;;;;;16.30;6.57;;;16.10;1.00;16.40;94571.00;;;;7405663;19;20141;-76
2023/05/25 08:55:44;;;;;;;12.13;6.95;;;15.50;1.00;16.70;94573.00;;;;7402968;19;20133;-76
2023/05/25 08:58:32;;;;;;;12.23;6.32;;;15.30;1.00;16.30;94585.00;;;;7405270;19;20128;-77
2023/05/25 09:01:07;;;;;;;9.60;6.30;;;15.10;1.00;16.20;94559.00;;;;7401426;19;20183;-79
2023/05/25 09:03:43;;;;;;;15.15;6.35;;;15.00;1.00;17.20;94556.00;;;;7404967;19;20121;-76
2023/05/25 09:06:10;;;;;;;19.00;6.72;;;15.30;1.00;18.00;94556.00;;;;7402772;19;20205;-76
2023/05/25 09:08:52;;;;;;;12.35;5.93;;;15.70;41.20;18.70;94569.00;;;;7401617;19;20144;-77
2023/05/25 09:11:34;;;;;;;10.07;6.70;;;16.20;96.90;18.60;94566.00;;;;7404611;19;20132;-78
2023/05/25 09:14:07;;;;;;;16.38;7.15;;;16.60;47.80;18.60;94576.00;;;;7402842;19;20144;-78
2023/05/25 09:16:41;;;;;;;15.02;6.72;;;16.70;48.30;19.00;94573.00;;;;7402724;19;20174;-79
2023/05/25 09:19:15;;;;;;;13.90;6.78;;;16.90;99.90;19.00;94574.00;;;;7404083;19;20134;-77
2023/05/25 09:21:50;;;;;;;14.65;6.78;;;17.30;99.90;19.60;94594.00;;;;7402568;19;20124;-77
2023/05/25 09:24:42;;;;;;;15.75;6.72;;;17.50;99.90;18.80;94602.00;;;;7401903;19;20165;-77
2023/05/25 09:27:19;;;;;;;16.67;6.53;;;17.60;99.90;18.00;94601.00;;;;7402035;19;20130;-76
2023/05/25 09:29:52;;;;;;;14.40;6.38;;;17.10;36.30;17.20;94601.00;;;;7400582;19;20144;-77
2023/05/25 09:32:19;;;;;;;10.75;6.63;;;16.80;27.70;16.80;94604.00;;;;7403902;19;20117;-76
2023/05/25 09:34:56;;;;;;;12.20;6.20;;;16.40;4.50;16.60;94554.00;;;;7401624;19;20159;-79
2023/05/25 09:37:23;;;;;;;11.75;6.13;;;16.10;1.00;16.20;94605.00;;;;7401004;19;20157;-76
2023/05/25 09:39:57;;;;;;;11.32;6.13;;;16.00;1.00;17.00;94614.00;;;;7403319;19;20144;-75
2023/05/25 09:42:25;;;;;;;13.63;6.70;;;16.10;20.50;16.90;94558.00;;;;7403444;19;20599;-78
2023/05/25 09:44:59;;;;;;;15.45;6.85;;;16.20;1.00;17.00;94595.00;;;;7401932;19;20166;-76
2023/05/25 09:47:30;;;;;;;15.63;6.55;;;16.40;1.00;17.70;94607.00;;;;7401840;19;20663;-77
2023/05/25 09:50:04;;;;;;;12.55;6.88;;;16.60;1.00;17.80;94601.00;;;;7402600;19;20117;-78
2023/05/25 09:52:31;;;;;;;15.43;7.55;;;16.70;1.00;17.30;94611.00;;;;7403025;19;20192;-77
2023/05/25 09:55:09;;;;;;;12.10;6.35;;;16.80;1.00;17.80;94586.00;;;;7402799;19;20137;-78
2023/05/25 09:57:43;;;;;;;13.07;5.72;;;17.00;1.00;18.80;94602.00;;;;7402273;19;20184;-77
2023/05/25 10:00:17;;;;;;;20.05;7.43;;;17.20;1.00;19.10;94578.00;;;;7401449;19;20647;-78
2023/05/25 10:02:52;;;;;;;11.32;6.75;;;17.60;28.60;20.00;94605.00;;;;7400976;19;20498;-79
2023/05/25 10:05:25;;;;;;;19.52;6.78;;;18.10;99.90;19.60;94571.00;;;;7402917;19;20584;-78
2023/05/25 10:08:02;;;;;;;14.18;7.35;;;18.40;99.90;20.00;94611.00;;;;7401604;19;20458;-77
2023/05/25 10:10:43;;;;;;;12.25;6.95;;;18.70;99.90;19.70;94600.00;;;;7399089;19;20136;-78
2023/05/25 10:13:13;;;;;;;14.02;6.72;;;18.80;99.90;19.80;94623.00;;;;7400068;19;20136;-77
2023/05/25 10:15:51;;;;;;;14.63;6.90;;;18.70;99.90;19.20;94609.00;;;;7401152;19;20220;-75
2023/05/25 10:18:26;;;;;;;13.25;6.45;;;18.60;99.90;19.10;94640.00;;;;7402449;19;20140;-76
2023/05/25 10:21:03;;;;;;;12.43;6.85;;;18.30;99.90;19.00;94635.00;;;;7402280;19;20132;-76
2023/05/25 10:23:46;;;;;;;8.85;6.53;;;18.00;99.90;18.90;94628.00;;;;7401776;19;20136;-74
2023/05/25 10:26:26;;;;;;;16.20;7.43;;;17.80;99.90;19.80;94607.00;;;;7402883;19;20124;-73
2023/05/25 10:29:00;;;;;;;12.15;6.45;;;18.10;99.90;20.60;94612.00;;;;7401659;19;20152;-75
2023/05/25 10:31:37;;;;;;;15.80;7.10;;;18.70;99.90;21.40;94625.00;;;;7400995;19;20132;-77
2023/05/25 10:34:10;;;;;;;14.55;6.47;;;19.50;99.90;20.10;94630.00;;;;7401935;19;20587;-75
2023/05/25 10:36:45;;;;;;;15.98;7.22;;;19.50;99.90;19.10;94639.00;;;;7401352;19;20137;-76
2023/05/25 10:39:20;;;;;;;13.63;6.43;;;19.10;99.90;19.00;94615.00;;;;7401653;19;20641;-75
2023/05/25 10:41:54;;;;;;;10.13;6.68;;;18.90;99.90;19.10;94606.00;;;;7402527;19;20130;-76
2023/05/25 10:44:29;;;;;;;13.48;7.10;;;18.70;99.90;20.40;94592.00;;;;7400638;19;20148;-78
2023/05/25 10:47:04;;;;;;;14.32;6.78;;;19.00;99.90;20.60;94561.00;;;;7400462;19;20163;-77
2023/05/25 10:49:49;;;;;;;10.88;6.60;;;19.40;99.90;21.80;94589.00;;;;7399849;19;20145;-77
2023/05/25 10:52:29;;;;;;;11.80;6.15;;;20.10;99.90;22.70;94592.00;;;;7402257;19;20162;-77
2023/05/25 10:55:04;;;;;;;13.93;7.00;;;20.90;99.90;22.90;94634.00;;;;7399880;19;20476;-77
2023/05/25 10:57:37;;;;;;;13.48;6.75;;;21.30;99.90;21.80;94641.00;;;;7400997;19;20140;-76
2023/05/25 11:00:13;;;;;;;9.30;6.55;;;21.30;99.90;21.10;94656.00;;;;7400029;19;20132;-76
2023/05/25 11:02:54;;;;;;;13.50;7.28;;;20.60;99.90;20.20;94654.00;;;;7401877;19;20161;-76
2023/05/25 11:05:30;;;;;;;11.02;6.50;;;19.90;99.90;19.80;94655.00;;;;7400717;19;20145;-79
2023/05/25 11:08:10;;;;;;;13.90;7.30;;;19.40;99.90;19.90;94612.00;;;;7400676;19;20137;-77
2023/05/25 11:10:54;;;;;;;12.23;7.30;;;19.20;99.90;19.70;94660.00;;;;7399072;19;20157;-75
2023/05/25 11:13:30;;;;;;;16.88;7.00;;;19.10;99.90;19.90;94661.00;;;;7401403;19;20129;-77
2023/05/25 11:16:21;;;;;;;12.43;6.50;;;18.90;99.90;18.90;94595.00;;;;7399928;19;20603;-76
2023/05/25 11:18:58;;;;;;;10.45;5.88;;;18.90;99.90;19.60;94641.00;;;;7400547;19;20157;-75
2023/05/25 11:21:31;;;;;;;14.48;7.05;;;19.00;99.90;19.80;94652.00;;;;7400448;19;20190;-75
2023/05/25 11:24:16;;;;;;;12.20;6.43;;;19.00;99.90;19.70;94651.00;;;;7400232;19;20608;-75
2023/05/25 11:27:00;;;;;;;11.60;6.22;;;18.90;99.90;19.70;94646.00;;;;7401774;19;20200;-76
2023/05/25 11:29:36;;;;;;;12.02;6.47;;;19.20;99.90;20.90;94658.00;;;;7400032;19;20204;-76
2023/05/25 11:32:03;;;;;;;14.23;6.47;;;19.60;99.90;20.10;94658.00;;;;7401298;19;20121;-76
2023/05/25 11:34:37;;;;;;;10.90;6.28;;;19.60;99.90;19.50;94656.00;;;;7399042;19;20135;-77
2023/05/25 11:37:15;;;;;;;11.75;6.70;;;19.50;99.90;19.60;94642.00;;;;7400709;19;20125;-75
2023/05/25 11:39:53;;;;;;;12.52;6.70;;;19.30;99.90;19.30;94653.00;;;;7401698;19;20137;-79
2023/05/25 11:42:29;;;;;;;10.20;6.45;;;19.00;99.90;19.40;94649.00;;;;7401058;19;20144;-75
2023/05/25 11:45:03;;;;;;;12.20;6.75;;;18.80;99.90;19.80;94649.00;;;;7400680;19;20598;-76
2023/05/25 11:47:31;;;;;;;10.23;6.60;;;19.00;99.90;20.30;94625.00;;;;7400564;19;20630;-75
2023/05/25 11:50:05;;;;;;;11.77;6.80;;;19.10;99.90;21.50;94642.00;;;;7400135;19;20584;-75
2023/05/25 11:52:32;;;;;;;11.07;6.18;;;19.70;99.90;21.10;94662.00;;;;7399355;19;20125;-75
2023/05/25 11:55:12;;;;;;;12.32;6.93;;;20.00;99.90;20.50;94618.00;;;;7399101;19;20494;-78
2023/05/25 11:57:40;;;;;;;10.57;6.10;;;19.60;99.90;20.50;94608.00;;;;7397916;19;20480;-76
2023/05/25 12:00:24;;;;;;;11.73;7.05;;;19.50;99.90;21.20;94648.00;;;;7396481;19;20506;-77
2023/05/25 12:02:52;;;;;;;12.75;5.90;;;19.50;99.90;21.50;94645.00;;;;7400433;19;20496;-77
2023/05/25 12:05:36;;;;;;;13.95;6.47;;;19.90;99.90;20.80;94650.00;;;;7399953;19;20148;-76
2023/05/25 12:08:03;;;;;;;13.15;6.15;;;19.80;99.90;20.50;94639.00;;;;7398444;19;20630;-77
2023/05/25 12:10:55;;;;;;;15.10;6.18;;;19.80;99.90;20.10;94659.00;;;;7399548;19;20464;-76
2023/05/25 12:13:30;;;;;;;14.65;6.65;;;19.50;99.90;20.10;94658.00;;;;7400093;19;20609;-76
2023/05/25 12:16:04;;;;;;;11.48;5.90;;;19.40;99.90;19.00;94653.00;;;;7400328;19;20139;-77
2023/05/25 12:18:38;;;;;;;10.45;6.10;;;19.20;99.90;19.50;94657.00;;;;7398756;19;20133;-77
2023/05/25 12:21:12;;;;;;;15.00;6.57;;;19.10;99.90;20.00;94641.00;;;;7397857;19;20141;-76
2023/05/25 12:23:40;;;;;;;13.05;5.85;;;19.10;99.90;20.40;94652.00;;;;7398271;19;20140;-78
2023/05/25 12:26:16;;;;;;;11.75;5.55;;;19.10;99.90;21.30;94641.00;;;;7397953;19;20151;-77
2023/05/25 12:29:08;;;;;;;10.32;5.60;;;19.70;99.90;21.50;94644.00;;;;7399908;19;20594;-77
2023/05/25 12:31:42;;;;;;;8.75;5.63;;;20.10;99.90;21.40;94631.00;;;;7396269;19;20145;-77
2023/05/25 12:34:11;;;;;;;9.82;5.65;;;20.20;99.90;21.10;94643.00;;;;7399844;19;20121;-75
2023/05/25 12:36:55;;;;;;;8.88;5.75;;;20.20;99.90;21.20;94651.00;;;;7399720;19;20120;-76
2023/05/25 12:39:28;;;;;;;11.77;6.13;;;20.30;99.90;22.00;94640.00;;;;7397168;19;20604;-76
2023/05/25 12:42:01;;;;;;;11.52;5.95;;;20.60;99.90;22.30;94655.00;;;;7397878;19;20129;-76
2023/05/25 12:44:32;;;;;;;11.07;6.38;;;20.80;99.90;21.90;94632.00;;;;7397369;19;20140;-77
2023/05/25 12:47:14;;;;;;;10.52;5.72;;;20.90;99.90;21.50;94649.00;;;;7397536;19;20599;-78
2023/05/25 12:49:47;;;;;;;10.88;5.38;;;21.30;99.90;21.90;94632.00;;;;7396744;19;20141;-76
2023/05/25 12:52:42;;;;;;;12.52;5.57;;;21.50;99.90;22.80;94613.00;;;;7396275;19;20493;-77
2023/05/25 12:55:28;;;;;;;14.75;6.25;;;21.90;99.90;22.80;94647.00;;;;7398144;19;20595;-76
2023/05/25 12:58:06;;;;;;;11.55;5.20;;;22.20;99.90;23.20;94629.00;;;;7395979;19;20622;-77
2023/05/25 13:00:38;;;;;;;11.93;5.60;;;22.50;1.00;22.80;94618.00;;;;7396520;19;20624;-77
2023/05/25 13:03:16;;;;;;;8.57;4.80;;;22.50;1.00;23.30;94637.00;;;;7397012;19;20124;-77
2023/05/25 13:05:50;;;;;;;10.77;5.68;;;22.40;1.00;23.20;94650.00;;;;7398733;19;20133;-77
2023/05/25 13:08:31;;;;;;;11.73;5.45;;;22.50;1.00;23.00;94645.00;;;;7397569;19;20121;-75
2023/05/25 13:11:00;;;;;;;9.65;5.30;;;22.30;1.00;23.20;94648.00;;;;7394367;19;20152;-75
2023/05/25 13:13:33;;;;;;;12.75;6.05;;;22.20;1.00;22.40;94661.00;;;;7403437;19;20124;-78
2023/05/25 13:16:00;;;;;;;12.63;6.85;;;21.80;1.00;21.60;94597.00;;;;7404523;19;20153;-76
2023/05/25 13:18:34;;;;;;;13.35;6.15;;;21.50;1.00;23.40;94631.00;;;;7403259;19;20156;-77
2023/05/25 13:21:02;;;;;;;11.30;5.60;;;21.90;1.00;24.10;94626.00;;;;7404711;19;20470;-77
2023/05/25 13:23:35;;;;;;;13.45;6.43;;;22.70;1.00;22.60;94645.00;;;;7402996;19;20125;-76
2023/05/25 13:26:02;;;;;;;11.30;5.43;;;22.60;1.00;22.90;94623.00;;;;7405628;19;20522;-75
2023/05/25 13:28:36;;;;;;;7.88;5.13;;;22.70;1.00;22.60;94631.00;;;;7402908;19;20136;-77
2023/05/25 13:31:04;;;;;;;12.77;5.75;;;22.40;1.00;23.30;94595.00;;;;7398595;19;20153;-75
2023/05/25 13:33:38;;;;;;;11.77;5.63;;;22.60;1.00;23.90;94636.00;;;;7403490;19;21143;-77
2023/05/25 13:36:08;;;;;;;10.40;5.93;;;23.10;1.00;24.30;94642.00;;;;7403671;19;20154;-77
2023/05/25 13:38:42;;;;;;;9.35;5.07;;;23.20;1.00;22.80;94658.00;;;;7402357;19;20508;-74
2023/05/25 13:41:10;;;;;;;14.40;6.20;;;22.80;1.00;22.10;94651.00;;;;7404560;19;20140;-75
2023/05/25 13:43:43;;;;;;;10.00;5.70;;;22.30;1.00;23.60;94644.00;;;;7404063;19;20469;-77
2023/05/25 13:46:10;;;;;;;13.15;6.00;;;22.50;1.00;23.00;94615.00;;;;7402679;19;20612;-76
2023/05/25 13:48:58;;;;;;;12.68;5.50;;;22.40;1.00;23.70;94597.00;;;;7402842;19;20133;-76
2023/05/25 13:51:34;;;;;;;9.32;5.47;;;22.70;1.00;24.60;94646.00;;;;7401906;19;20136;-76
2023/05/25 13:54:08;;;;;;;10.02;5.13;;;23.60;1.00;23.70;94636.00;;;;7402710;19;20597;-77
2023/05/25 13:56:42;;;;;;;11.68;5.68;;;23.60;99.90;23.40;94636.00;;;;7402404;19;20133;-77
2023/05/25 13:59:09;;;;;;;9.93;5.13;;;23.50;99.90;22.20;94638.00;;;;7402618;19;20174;-77
2023/05/25 14:01:43;;;;;;;12.10;5.18;;;22.90;99.90;23.20;94658.00;;;;7403162;19;20181;-74
2023/05/25 14:04:13;;;;;;;10.30;5.55;;;22.70;99.90;22.30;94650.00;;;;7403845;19;20142;-76
2023/05/25 14:06:47;;;;;;;8.38;5.68;;;22.20;99.90;22.60;94609.00;;;;7404042;19;20132;-78
2023/05/25 14:09:27;;;;;;;10.80;5.32;;;22.00;99.90;24.40;94619.00;;;;7401535;19;20164;-74
2023/05/25 14:11:54;;;;;;;8.77;5.15;;;23.00;99.90;25.40;94598.00;;;;7400927;19;20135;-77
2023/05/25 14:14:28;;;;;;;9.18;5.03;;;24.10;99.90;26.40;94593.00;;;;7403639;19;20136;-77
2023/05/25 14:16:59;;;;;;;11.13;5.60;;;25.10;1.00;25.00;94579.00;;;;7401969;19;20149;-78
2023/05/25 14:19:34;;;;;;;12.65;5.65;;;25.50;1.00;25.40;94655.00;;;;7403778;19;20141;-75
2023/05/25 14:22:07;;;;;;;10.38;4.72;;;25.70;1.00;24.20;94637.00;;;;7400948;19;20129;-77
2023/05/25 14:24:41;;;;;;;7.57;4.75;;;25.20;1.00;23.00;94667.00;;;;7402348;19;20144;-75
2023/05/25 14:27:19;;;;;;;10.30;5.60;;;24.40;1.00;22.00;94675.00;;;;7402224;19;20145;-74
2023/05/25 14:29:53;;;;;;;9.18;5.68;;;23.00;1.00;21.90;94636.00;;;;7402115;19;20140;-76
2023/05/25 14:32:27;;;;;;;10.32;4.85;;;22.20;1.00;24.00;94601.00;;;;7398015;19;20152;-76
2023/05/25 14:35:16;;;;;;;8.63;5.32;;;22.70;1.00;25.10;94630.00;;;;7398565;19;20546;-76
2023/05/25 14:37:57;;;;;;;13.00;5.03;;;23.70;1.00;24.70;94615.00;;;;7395326;19;20148;-77
2023/05/25 14:40:24;;;;;;;13.63;5.72;;;24.20;1.00;23.20;94627.00;;;;7397955;19;20153;-76
2023/05/25 14:42:58;;;;;;;10.15;5.05;;;24.10;1.00;23.30;94618.00;;;;7400199;19;20231;-78
2023/05/25 14:45:25;;;;;;;8.10;5.30;;;23.80;1.00;24.70;94660.00;;;;7401625;19;20462;-78
2023/05/25 14:47:59;;;;;;;12.10;5.32;;;24.10;1.00;24.50;94617.00;;;;7399810;19;20149;-77
2023/05/25 14:50:43;;;;;;;9.30;4.78;;;24.30;1.00;25.50;94651.00;;;;7400367;19;20133;-78
2023/05/25 14:53:16;;;;;;;10.65;5.43;;;25.30;1.00;25.10;94660.00;;;;7399796;19;20124;-78
2023/05/25 14:55:44;;;;;;;11.10;5.45;;;25.30;1.00;24.80;94626.00;;;;7399642;19;20137;-77
2023/05/25 14:58:17;;;;;;;9.43;5.07;;;25.30;1.00;24.70;94658.00;;;;7400020;19;20165;-78
2023/05/25 15:00:44;;;;;;;9.88;5.40;;;25.50;1.00;23.90;94627.00;;;;7399046;19;20186;-78
2023/05/25 15:03:18;;;;;;;10.15;4.82;;;24.80;1.00;24.10;94629.00;;;;7399010;19;20152;-76
2023/05/25 15:05:45;;;;;;;9.60;4.95;;;25.10;1.00;24.90;94630.00;;;;7400401;19;20570;-77
2023/05/25 15:08:32;;;;;;;10.18;5.20;;;25.50;1.00;25.50;94629.00;;;;7400304;19;20131;-77
2023/05/25 15:11:09;;;;;;;11.60;5.20;;;25.90;1.00;25.70;94628.00;;;;7399570;19;20228;-77
2023/05/25 15:13:43;;;;;;;9.35;4.88;;;26.70;1.00;25.90;94625.00;;;;7399066;19;20174;-76
2023/05/25 15:16:17;;;;;;;8.93;5.00;;;27.10;1.00;26.10;94633.00;;;;7399929;19;20160;-79
2023/05/25 15:18:44;;;;;;;7.78;4.60;;;27.30;1.00;25.60;94661.00;;;;7400755;19;20133;-77
2023/05/25 15:21:18;;;;;;;8.07;4.88;;;27.10;1.00;23.80;94645.00;;;;7398340;19;20182;-77
2023/05/25 15:23:52;;;;;;;12.65;5.00;;;25.90;1.00;24.30;94642.00;;;;7398692;19;20615;-78
2023/05/25 15:26:26;;;;;;;8.15;5.30;;;25.60;1.00;24.50;94624.00;;;;7400409;19;20143;-78